sensor_id;sensor_type;location;lat;lon;timestamp;P1;durP1;ratioP1;P2;durP2;ratioP2
13345;SDS011;6742;48.036;15.780;2023-02-23T00:00:16;6.72;;;5.95;;
13345;SDS011;6742;48.036;15.780;2023-02-23T00:02:47;7.05;;;5.88;;
13345;SDS011;6742;48.036;15.780;2023-02-23T00:05:17;5.68;;;4.90;;
13345;SDS011;6742;48.036;15.780;2023-02-23T00:07:44;6.53;;;5.65;;
13345;SDS011;6742;48.036;15.780;2023-02-23T00:10:13;6.43;;;5.78;;
13345;SDS011;6742;48.036;15.780;2023-02-23T00:12:42;7.65;;;6.72;;
13345;SDS011;6742;48.036;15.780;2023-02-23T00:15:10;7.78;;;6.90;;
13345;SDS011;6742;48.036;15.780;2023-02-23T00:17:37;7.60;;;6.80;;
13345;SDS011;6742;48.036;15.780;2023-02-23T00:20:06;7.90;;;6.95;;
13345;SDS011;6742;48.036;15.780;2023-02-23T00:22:36;9.52;;;7.60;;
13345;SDS011;6742;48.036;15.780;2023-02-23T00:25:08;8.30;;;7.25;;
13345;SDS011;6742;48.036;15.780;2023-02-23T00:27:38;8.23;;;6.50;;
13345;SDS011;6742;48.036;15.780;2023-02-23T00:30:09;6.85;;;6.00;;
13345;SDS011;6742;48.036;15.780;2023-02-23T00:32:37;7.97;;;6.45;;
13345;SDS011;6742;48.036;15.780;2023-02-23T00:35:05;7.25;;;6.07;;
13345;SDS011;6742;48.036;15.780;2023-02-23T00:37:37;7.35;;;5.95;;
13345;SDS011;6742;48.036;15.780;2023-02-23T00:40:04;5.95;;;5.35;;
13345;SDS011;6742;48.036;15.780;2023-02-23T00:42:39;6.38;;;5.30;;
13345;SDS011;6742;48.036;15.780;2023-02-23T00:45:08;7.13;;;6.00;;
13345;SDS011;6742;48.036;15.780;2023-02-23T00:47:36;6.90;;;6.03;;
13345;SDS011;6742;48.036;15.780;2023-02-23T00:50:04;7.30;;;6.53;;
13345;SDS011;6742;48.036;15.780;2023-02-23T00:52:35;6.88;;;5.50;;
13345;SDS011;6742;48.036;15.780;2023-02-23T00:55:06;6.82;;;5.90;;
13345;SDS011;6742;48.036;15.780;2023-02-23T00:57:34;7.55;;;5.55;;
13345;SDS011;6742;48.036;15.780;2023-02-23T01:00:03;6.82;;;5.95;;
13345;SDS011;6742;48.036;15.780;2023-02-23T01:02:39;8.05;;;6.82;;
13345;SDS011;6742;48.036;15.780;2023-02-23T01:05:07;8.65;;;7.15;;
13345;SDS011;6742;48.036;15.780;2023-02-23T01:07:35;7.60;;;6.18;;
13345;SDS011;6742;48.036;15.780;2023-02-23T01:10:03;6.65;;;5.68;;
13345;SDS011;6742;48.036;15.780;2023-02-23T01:12:43;6.97;;;5.78;;
13345;SDS011;6742;48.036;15.780;2023-02-23T01:15:13;6.78;;;5.43;;
13345;SDS011;6742;48.036;15.780;2023-02-23T01:17:40;7.03;;;5.88;;
13345;SDS011;6742;48.036;15.780;2023-02-23T01:20:09;6.55;;;5.50;;
13345;SDS011;6742;48.036;15.780;2023-02-23T01:22:41;6.75;;;5.70;;
13345;SDS011;6742;48.036;15.780;2023-02-23T01:25:09;7.50;;;5.53;;
13345;SDS011;6742;48.036;15.780;2023-02-23T01:27:40;7.32;;;6.15;;
13345;SDS011;6742;48.036;15.780;2023-02-23T01:30:09;6.97;;;5.70;;
13345;SDS011;6742;48.036;15.780;2023-02-23T01:32:40;6.65;;;5.20;;
13345;SDS011;6742;48.036;15.780;2023-02-23T01:35:07;6.18;;;5.20;;
13345;SDS011;6742;48.036;15.780;2023-02-23T01:37:37;5.57;;;4.82;;
13345;SDS011;6742;48.036;15.780;2023-02-23T01:40:06;8.43;;;4.70;;
13345;SDS011;6742;48.036;15.780;2023-02-23T01:42:38;5.72;;;4.57;;
13345;SDS011;6742;48.036;15.780;2023-02-23T01:48:01;6.07;;;4.78;;
13345;SDS011;6742;48.036;15.780;2023-02-23T01:50:42;7.18;;;5.05;;
13345;SDS011;6742;48.036;15.780;2023-02-23T01:53:18;7.45;;;5.18;;
13345;SDS011;6742;48.036;15.780;2023-02-23T01:55:47;6.35;;;5.18;;
13345;SDS011;6742;48.036;15.780;2023-02-23T01:58:15;7.03;;;5.15;;
13345;SDS011;6742;48.036;15.780;2023-02-23T02:00:46;5.57;;;4.68;;
13345;SDS011;6742;48.036;15.780;2023-02-23T02:03:18;7.30;;;5.50;;
13345;SDS011;6742;48.036;15.780;2023-02-23T02:05:50;7.75;;;5.25;;
13345;SDS011;6742;48.036;15.780;2023-02-23T02:08:18;6.25;;;5.25;;
13345;SDS011;6742;48.036;15.780;2023-02-23T02:10:48;7.03;;;5.75;;
13345;SDS011;6742;48.036;15.780;2023-02-23T02:13:20;6.45;;;5.75;;
13345;SDS011;6742;48.036;15.780;2023-02-23T02:34:22;8.63;;;6.38;;
13345;SDS011;6742;48.036;15.780;2023-02-23T02:37:13;8.05;;;6.53;;
13345;SDS011;6742;48.036;15.780;2023-02-23T02:40:03;9.52;;;7.18;;
13345;SDS011;6742;48.036;15.780;2023-02-23T02:42:45;7.93;;;6.38;;
13345;SDS011;6742;48.036;15.780;2023-02-23T02:45:21;8.05;;;6.28;;
13345;SDS011;6742;48.036;15.780;2023-02-23T02:47:55;7.60;;;6.78;;
13345;SDS011;6742;48.036;15.780;2023-02-23T02:50:33;7.63;;;6.40;;
13345;SDS011;6742;48.036;15.780;2023-02-23T02:53:08;9.15;;;6.45;;
13345;SDS011;6742;48.036;15.780;2023-02-23T02:55:38;7.05;;;6.30;;
13345;SDS011;6742;48.036;15.780;2023-02-23T02:58:08;9.95;;;6.47;;
13345;SDS011;6742;48.036;15.780;2023-02-23T03:00:38;9.27;;;6.53;;
13345;SDS011;6742;48.036;15.780;2023-02-23T03:03:27;6.85;;;6.07;;
13345;SDS011;6742;48.036;15.780;2023-02-23T03:06:20;7.28;;;6.00;;
13345;SDS011;6742;48.036;15.780;2023-02-23T03:09:13;9.20;;;6.35;;
13345;SDS011;6742;48.036;15.780;2023-02-23T03:12:07;8.27;;;6.30;;
13345;SDS011;6742;48.036;15.780;2023-02-23T03:14:55;8.35;;;6.82;;
13345;SDS011;6742;48.036;15.780;2023-02-23T03:17:47;9.15;;;7.50;;
13345;SDS011;6742;48.036;15.780;2023-02-23T03:20:40;9.45;;;7.18;;
13345;SDS011;6742;48.036;15.780;2023-02-23T03:23:30;7.43;;;6.60;;
13345;SDS011;6742;48.036;15.780;2023-02-23T03:26:26;8.77;;;7.25;;
13345;SDS011;6742;48.036;15.780;2023-02-23T03:29:18;8.23;;;7.20;;
13345;SDS011;6742;48.036;15.780;2023-02-23T03:32:09;8.23;;;6.70;;
13345;SDS011;6742;48.036;15.780;2023-02-23T03:35:03;8.07;;;6.82;;
13345;SDS011;6742;48.036;15.780;2023-02-23T03:37:51;7.93;;;6.70;;
13345;SDS011;6742;48.036;15.780;2023-02-23T03:40:40;9.55;;;7.35;;
13345;SDS011;6742;48.036;15.780;2023-02-23T03:43:29;8.45;;;6.60;;
13345;SDS011;6742;48.036;15.780;2023-02-23T03:46:17;7.88;;;6.68;;
13345;SDS011;6742;48.036;15.780;2023-02-23T03:49:03;7.90;;;6.97;;
13345;SDS011;6742;48.036;15.780;2023-02-23T03:51:51;8.60;;;6.90;;
13345;SDS011;6742;48.036;15.780;2023-02-23T03:54:41;8.93;;;6.55;;
13345;SDS011;6742;48.036;15.780;2023-02-23T03:57:30;8.23;;;6.75;;
13345;SDS011;6742;48.036;15.780;2023-02-23T04:00:20;8.30;;;7.32;;
13345;SDS011;6742;48.036;15.780;2023-02-23T04:03:09;8.57;;;6.85;;
13345;SDS011;6742;48.036;15.780;2023-02-23T04:05:58;9.40;;;7.43;;
13345;SDS011;6742;48.036;15.780;2023-02-23T04:08:44;7.68;;;6.82;;
13345;SDS011;6742;48.036;15.780;2023-02-23T04:11:33;9.82;;;7.20;;
13345;SDS011;6742;48.036;15.780;2023-02-23T04:14:25;9.35;;;6.78;;
13345;SDS011;6742;48.036;15.780;2023-02-23T04:16:59;8.15;;;6.97;;
13345;SDS011;6742;48.036;15.780;2023-02-23T04:19:28;8.93;;;7.70;;
13345;SDS011;6742;48.036;15.780;2023-02-23T04:21:55;10.82;;;8.60;;
13345;SDS011;6742;48.036;15.780;2023-02-23T04:24:22;9.05;;;7.32;;
13345;SDS011;6742;48.036;15.780;2023-02-23T04:26:48;8.07;;;6.70;;
13345;SDS011;6742;48.036;15.780;2023-02-23T04:29:15;8.25;;;6.72;;
13345;SDS011;6742;48.036;15.780;2023-02-23T04:31:42;7.80;;;6.68;;
13345;SDS011;6742;48.036;15.780;2023-02-23T04:34:11;8.10;;;6.03;;
13345;SDS011;6742;48.036;15.780;2023-02-23T04:36:38;7.68;;;6.57;;
13345;SDS011;6742;48.036;15.780;2023-02-23T04:39:06;8.32;;;6.60;;
13345;SDS011;6742;48.036;15.780;2023-02-23T04:41:33;9.95;;;7.03;;
13345;SDS011;6742;48.036;15.780;2023-02-23T04:44:00;8.02;;;6.32;;
13345;SDS011;6742;48.036;15.780;2023-02-23T04:46:28;8.23;;;6.80;;
13345;SDS011;6742;48.036;15.780;2023-02-23T04:48:55;8.10;;;6.43;;
13345;SDS011;6742;48.036;15.780;2023-02-23T04:51:24;9.18;;;6.38;;
13345;SDS011;6742;48.036;15.780;2023-02-23T04:53:56;7.70;;;5.93;;
13345;SDS011;6742;48.036;15.780;2023-02-23T04:56:23;8.80;;;6.05;;
13345;SDS011;6742;48.036;15.780;2023-02-23T04:58:50;7.80;;;5.88;;
13345;SDS011;6742;48.036;15.780;2023-02-23T05:01:20;6.50;;;5.75;;
13345;SDS011;6742;48.036;15.780;2023-02-23T05:03:47;9.93;;;6.10;;
13345;SDS011;6742;48.036;15.780;2023-02-23T05:06:14;8.70;;;5.18;;
13345;SDS011;6742;48.036;15.780;2023-02-23T05:08:43;6.85;;;5.90;;
13345;SDS011;6742;48.036;15.780;2023-02-23T05:11:10;8.48;;;5.93;;
13345;SDS011;6742;48.036;15.780;2023-02-23T05:13:38;6.60;;;5.38;;
13345;SDS011;6742;48.036;15.780;2023-02-23T05:16:05;8.43;;;6.30;;
13345;SDS011;6742;48.036;15.780;2023-02-23T05:18:33;6.25;;;5.15;;
13345;SDS011;6742;48.036;15.780;2023-02-23T05:21:00;7.15;;;5.65;;
13345;SDS011;6742;48.036;15.780;2023-02-23T05:23:29;8.63;;;6.22;;
13345;SDS011;6742;48.036;15.780;2023-02-23T05:25:59;7.32;;;5.97;;
13345;SDS011;6742;48.036;15.780;2023-02-23T05:28:30;7.47;;;6.03;;
13345;SDS011;6742;48.036;15.780;2023-02-23T05:30:57;7.63;;;6.13;;
13345;SDS011;6742;48.036;15.780;2023-02-23T05:33:28;7.78;;;5.82;;
13345;SDS011;6742;48.036;15.780;2023-02-23T05:35:55;7.15;;;6.18;;
13345;SDS011;6742;48.036;15.780;2023-02-23T05:38:25;7.03;;;6.00;;
13345;SDS011;6742;48.036;15.780;2023-02-23T05:40:52;8.98;;;6.50;;
13345;SDS011;6742;48.036;15.780;2023-02-23T05:43:23;8.73;;;6.38;;
13345;SDS011;6742;48.036;15.780;2023-02-23T05:45:50;7.43;;;6.55;;
13345;SDS011;6742;48.036;15.780;2023-02-23T05:48:20;7.82;;;6.35;;
13345;SDS011;6742;48.036;15.780;2023-02-23T05:50:47;8.00;;;6.07;;
13345;SDS011;6742;48.036;15.780;2023-02-23T05:53:17;8.38;;;6.13;;
13345;SDS011;6742;48.036;15.780;2023-02-23T05:55:44;7.13;;;6.07;;
13345;SDS011;6742;48.036;15.780;2023-02-23T05:58:14;10.35;;;6.82;;
13345;SDS011;6742;48.036;15.780;2023-02-23T06:00:43;9.85;;;7.38;;
13345;SDS011;6742;48.036;15.780;2023-02-23T06:03:09;9.00;;;6.80;;
13345;SDS011;6742;48.036;15.780;2023-02-23T06:05:39;9.32;;;7.80;;
13345;SDS011;6742;48.036;15.780;2023-02-23T06:08:09;8.85;;;7.05;;
13345;SDS011;6742;48.036;15.780;2023-02-23T06:10:36;10.43;;;7.78;;
13345;SDS011;6742;48.036;15.780;2023-02-23T06:13:03;8.65;;;7.68;;
13345;SDS011;6742;48.036;15.780;2023-02-23T06:15:30;11.20;;;8.45;;
13345;SDS011;6742;48.036;15.780;2023-02-23T06:17:58;9.55;;;7.88;;
13345;SDS011;6742;48.036;15.780;2023-02-23T06:20:25;9.25;;;7.72;;
13345;SDS011;6742;48.036;15.780;2023-02-23T06:22:52;11.43;;;8.48;;
13345;SDS011;6742;48.036;15.780;2023-02-23T06:25:19;12.75;;;9.10;;
13345;SDS011;6742;48.036;15.780;2023-02-23T06:27:46;12.43;;;8.88;;
13345;SDS011;6742;48.036;15.780;2023-02-23T06:30:13;12.40;;;9.57;;
13345;SDS011;6742;48.036;15.780;2023-02-23T06:32:40;12.45;;;9.50;;
13345;SDS011;6742;48.036;15.780;2023-02-23T06:35:14;11.65;;;9.48;;
13345;SDS011;6742;48.036;15.780;2023-02-23T06:37:45;12.98;;;9.48;;
13345;SDS011;6742;48.036;15.780;2023-02-23T06:40:12;12.18;;;9.27;;
13345;SDS011;6742;48.036;15.780;2023-02-23T06:42:39;9.95;;;8.38;;
13345;SDS011;6742;48.036;15.780;2023-02-23T06:45:06;9.93;;;8.23;;
13345;SDS011;6742;48.036;15.780;2023-02-23T06:47:33;12.85;;;8.68;;
13345;SDS011;6742;48.036;15.780;2023-02-23T06:50:00;11.00;;;9.23;;
13345;SDS011;6742;48.036;15.780;2023-02-23T06:52:29;13.18;;;8.90;;
13345;SDS011;6742;48.036;15.780;2023-02-23T06:54:56;8.77;;;7.25;;
13345;SDS011;6742;48.036;15.780;2023-02-23T06:57:23;9.82;;;8.30;;
13345;SDS011;6742;48.036;15.780;2023-02-23T06:59:50;12.48;;;8.85;;
13345;SDS011;6742;48.036;15.780;2023-02-23T07:02:20;12.82;;;9.35;;
13345;SDS011;6742;48.036;15.780;2023-02-23T07:04:47;11.63;;;9.10;;
13345;SDS011;6742;48.036;15.780;2023-02-23T07:07:14;12.07;;;9.10;;
13345;SDS011;6742;48.036;15.780;2023-02-23T07:09:42;13.90;;;10.98;;
13345;SDS011;6742;48.036;15.780;2023-02-23T07:12:09;14.63;;;11.32;;
13345;SDS011;6742;48.036;15.780;2023-02-23T07:14:36;14.60;;;11.48;;
13345;SDS011;6742;48.036;15.780;2023-02-23T07:17:04;14.82;;;11.55;;
13345;SDS011;6742;48.036;15.780;2023-02-23T07:19:33;13.45;;;11.52;;
13345;SDS011;6742;48.036;15.780;2023-02-23T07:22:00;13.45;;;10.88;;
13345;SDS011;6742;48.036;15.780;2023-02-23T07:24:28;13.88;;;10.70;;
13345;SDS011;6742;48.036;15.780;2023-02-23T07:26:57;14.02;;;10.88;;
13345;SDS011;6742;48.036;15.780;2023-02-23T07:29:24;12.68;;;10.55;;
13345;SDS011;6742;48.036;15.780;2023-02-23T07:31:52;14.13;;;11.68;;
13345;SDS011;6742;48.036;15.780;2023-02-23T07:34:19;15.15;;;12.00;;
13345;SDS011;6742;48.036;15.780;2023-02-23T07:36:46;15.25;;;12.88;;
13345;SDS011;6742;48.036;15.780;2023-02-23T07:39:13;15.63;;;13.18;;
13345;SDS011;6742;48.036;15.780;2023-02-23T07:41:40;12.85;;;11.43;;
13345;SDS011;6742;48.036;15.780;2023-02-23T07:44:08;13.68;;;11.77;;
13345;SDS011;6742;48.036;15.780;2023-02-23T07:46:37;15.00;;;11.18;;
13345;SDS011;6742;48.036;15.780;2023-02-23T07:49:04;13.88;;;11.20;;
13345;SDS011;6742;48.036;15.780;2023-02-23T07:51:31;12.30;;;10.55;;
13345;SDS011;6742;48.036;15.780;2023-02-23T07:54:00;14.05;;;10.38;;
13345;SDS011;6742;48.036;15.780;2023-02-23T07:56:29;12.38;;;9.70;;
13345;SDS011;6742;48.036;15.780;2023-02-23T07:58:56;11.30;;;10.10;;
13345;SDS011;6742;48.036;15.780;2023-02-23T08:01:24;18.42;;;13.05;;
13345;SDS011;6742;48.036;15.780;2023-02-23T08:03:51;12.38;;;10.90;;
13345;SDS011;6742;48.036;15.780;2023-02-23T08:06:18;11.23;;;10.13;;
13345;SDS011;6742;48.036;15.780;2023-02-23T08:08:45;11.68;;;9.80;;
13345;SDS011;6742;48.036;15.780;2023-02-23T08:11:15;16.52;;;12.88;;
13345;SDS011;6742;48.036;15.780;2023-02-23T08:13:42;14.45;;;11.55;;
13345;SDS011;6742;48.036;15.780;2023-02-23T08:16:09;13.93;;;11.85;;
13345;SDS011;6742;48.036;15.780;2023-02-23T08:18:38;13.70;;;12.18;;
13345;SDS011;6742;48.036;15.780;2023-02-23T08:21:04;13.32;;;11.27;;
13345;SDS011;6742;48.036;15.780;2023-02-23T08:23:32;17.73;;;12.63;;
13345;SDS011;6742;48.036;15.780;2023-02-23T08:26:00;15.15;;;12.35;;
13345;SDS011;6742;48.036;15.780;2023-02-23T08:28:27;13.90;;;12.30;;
13345;SDS011;6742;48.036;15.780;2023-02-23T08:30:55;13.88;;;11.43;;
13345;SDS011;6742;48.036;15.780;2023-02-23T08:33:23;12.30;;;10.45;;
13345;SDS011;6742;48.036;15.780;2023-02-23T08:35:51;11.30;;;10.07;;
13345;SDS011;6742;48.036;15.780;2023-02-23T08:38:18;10.52;;;9.43;;
13345;SDS011;6742;48.036;15.780;2023-02-23T08:40:48;11.95;;;9.93;;
13345;SDS011;6742;48.036;15.780;2023-02-23T08:43:15;9.85;;;8.85;;
13345;SDS011;6742;48.036;15.780;2023-02-23T08:45:42;10.95;;;9.27;;
13345;SDS011;6742;48.036;15.780;2023-02-23T08:48:09;11.18;;;10.00;;
13345;SDS011;6742;48.036;15.780;2023-02-23T08:50:36;11.30;;;10.10;;
13345;SDS011;6742;48.036;15.780;2023-02-23T08:53:04;10.25;;;9.15;;
13345;SDS011;6742;48.036;15.780;2023-02-23T08:55:31;10.85;;;9.57;;
13345;SDS011;6742;48.036;15.780;2023-02-23T08:57:59;10.48;;;8.80;;
13345;SDS011;6742;48.036;15.780;2023-02-23T09:00:26;9.98;;;9.00;;
13345;SDS011;6742;48.036;15.780;2023-02-23T09:02:53;9.90;;;8.82;;
13345;SDS011;6742;48.036;15.780;2023-02-23T09:05:20;9.80;;;8.60;;
13345;SDS011;6742;48.036;15.780;2023-02-23T09:07:49;8.95;;;8.05;;
13345;SDS011;6742;48.036;15.780;2023-02-23T09:10:18;11.60;;;9.13;;
13345;SDS011;6742;48.036;15.780;2023-02-23T09:12:49;9.85;;;8.85;;
13345;SDS011;6742;48.036;15.780;2023-02-23T09:15:16;11.13;;;8.75;;
13345;SDS011;6742;48.036;15.780;2023-02-23T09:17:47;11.05;;;8.45;;
13345;SDS011;6742;48.036;15.780;2023-02-23T09:20:14;9.45;;;8.10;;
13345;SDS011;6742;48.036;15.780;2023-02-23T09:22:42;9.13;;;8.20;;
13345;SDS011;6742;48.036;15.780;2023-02-23T09:25:13;8.70;;;7.90;;
13345;SDS011;6742;48.036;15.780;2023-02-23T09:27:43;8.38;;;7.53;;
13345;SDS011;6742;48.036;15.780;2023-02-23T09:30:11;9.30;;;8.27;;
13345;SDS011;6742;48.036;15.780;2023-02-23T09:32:42;8.40;;;7.47;;
13345;SDS011;6742;48.036;15.780;2023-02-23T09:35:09;8.75;;;7.82;;
13345;SDS011;6742;48.036;15.780;2023-02-23T09:37:36;8.80;;;7.90;;
13345;SDS011;6742;48.036;15.780;2023-02-23T09:40:03;8.90;;;8.00;;
13345;SDS011;6742;48.036;15.780;2023-02-23T09:42:35;9.57;;;8.05;;
13345;SDS011;6742;48.036;15.780;2023-02-23T09:45:13;9.68;;;8.00;;
13345;SDS011;6742;48.036;15.780;2023-02-23T09:47:48;9.57;;;7.85;;
13345;SDS011;6742;48.036;15.780;2023-02-23T09:50:27;8.57;;;7.75;;
13345;SDS011;6742;48.036;15.780;2023-02-23T09:52:57;9.52;;;7.97;;
13345;SDS011;6742;48.036;15.780;2023-02-23T09:55:27;8.95;;;8.05;;
13345;SDS011;6742;48.036;15.780;2023-02-23T09:57:55;9.00;;;8.07;;
13345;SDS011;6742;48.036;15.780;2023-02-23T10:00:29;10.10;;;8.43;;
13345;SDS011;6742;48.036;15.780;2023-02-23T10:03:05;9.23;;;8.27;;
13345;SDS011;6742;48.036;15.780;2023-02-23T10:05:43;9.45;;;8.35;;
13345;SDS011;6742;48.036;15.780;2023-02-23T10:08:18;11.00;;;8.65;;
13345;SDS011;6742;48.036;15.780;2023-02-23T10:10:53;10.48;;;8.20;;
13345;SDS011;6742;48.036;15.780;2023-02-23T10:13:34;10.05;;;8.88;;
13345;SDS011;6742;48.036;15.780;2023-02-23T10:16:14;9.75;;;8.43;;
13345;SDS011;6742;48.036;15.780;2023-02-23T10:18:45;8.77;;;7.88;;
13345;SDS011;6742;48.036;15.780;2023-02-23T10:21:22;10.55;;;8.57;;
13345;SDS011;6742;48.036;15.780;2023-02-23T10:23:57;9.60;;;8.23;;
13345;SDS011;6742;48.036;15.780;2023-02-23T10:26:27;10.00;;;7.85;;
13345;SDS011;6742;48.036;15.780;2023-02-23T10:29:03;10.68;;;7.95;;
13345;SDS011;6742;48.036;15.780;2023-02-23T10:31:46;9.63;;;8.63;;
13345;SDS011;6742;48.036;15.780;2023-02-23T10:34:17;9.82;;;8.63;;
13345;SDS011;6742;48.036;15.780;2023-02-23T10:36:45;12.00;;;9.65;;
13345;SDS011;6742;48.036;15.780;2023-02-23T10:39:17;11.13;;;9.45;;
13345;SDS011;6742;48.036;15.780;2023-02-23T10:41:44;10.82;;;9.50;;
13345;SDS011;6742;48.036;15.780;2023-02-23T10:44:14;9.68;;;8.68;;
13345;SDS011;6742;48.036;15.780;2023-02-23T10:46:48;11.85;;;9.35;;
13345;SDS011;6742;48.036;15.780;2023-02-23T10:49:18;10.32;;;8.98;;
13345;SDS011;6742;48.036;15.780;2023-02-23T10:51:54;10.32;;;9.15;;
13345;SDS011;6742;48.036;15.780;2023-02-23T10:57:18;11.07;;;9.90;;
13345;SDS011;6742;48.036;15.780;2023-02-23T10:59:57;10.20;;;9.20;;
13345;SDS011;6742;48.036;15.780;2023-02-23T11:02:33;9.77;;;8.43;;
13345;SDS011;6742;48.036;15.780;2023-02-23T11:05:02;10.52;;;9.52;;
13345;SDS011;6742;48.036;15.780;2023-02-23T11:07:32;10.15;;;9.15;;
13345;SDS011;6742;48.036;15.780;2023-02-23T11:10:12;9.95;;;8.98;;
13345;SDS011;6742;48.036;15.780;2023-02-23T11:12:50;11.30;;;9.00;;
13345;SDS011;6742;48.036;15.780;2023-02-23T11:15:25;10.32;;;9.23;;
13345;SDS011;6742;48.036;15.780;2023-02-23T11:17:55;10.68;;;9.57;;
13345;SDS011;6742;48.036;15.780;2023-02-23T11:20:25;10.23;;;9.00;;
13345;SDS011;6742;48.036;15.780;2023-02-23T11:22:57;11.27;;;9.38;;
13345;SDS011;6742;48.036;15.780;2023-02-23T11:25:25;11.30;;;10.15;;
13345;SDS011;6742;48.036;15.780;2023-02-23T11:27:54;10.35;;;9.35;;
13345;SDS011;6742;48.036;15.780;2023-02-23T11:30:23;10.70;;;9.40;;
13345;SDS011;6742;48.036;15.780;2023-02-23T11:32:58;10.93;;;9.52;;
13345;SDS011;6742;48.036;15.780;2023-02-23T11:35:33;13.68;;;10.35;;
13345;SDS011;6742;48.036;15.780;2023-02-23T11:38:07;11.18;;;9.98;;
13345;SDS011;6742;48.036;15.780;2023-02-23T11:40:41;11.50;;;10.02;;
13345;SDS011;6742;48.036;15.780;2023-02-23T11:43:08;11.27;;;10.18;;
13345;SDS011;6742;48.036;15.780;2023-02-23T11:45:43;13.43;;;11.23;;
13345;SDS011;6742;48.036;15.780;2023-02-23T11:48:19;12.60;;;10.40;;
13345;SDS011;6742;48.036;15.780;2023-02-23T11:50:48;13.60;;;11.93;;
13345;SDS011;6742;48.036;15.780;2023-02-23T11:53:18;14.10;;;11.43;;
13345;SDS011;6742;48.036;15.780;2023-02-23T11:55:52;15.55;;;11.48;;
13345;SDS011;6742;48.036;15.780;2023-02-23T11:58:22;12.40;;;11.18;;
13345;SDS011;6742;48.036;15.780;2023-02-23T12:00:55;12.68;;;10.80;;
13345;SDS011;6742;48.036;15.780;2023-02-23T12:03:25;12.77;;;11.48;;
13345;SDS011;6742;48.036;15.780;2023-02-23T12:05:55;13.10;;;11.57;;
13345;SDS011;6742;48.036;15.780;2023-02-23T12:08:34;14.07;;;11.13;;
13345;SDS011;6742;48.036;15.780;2023-02-23T12:11:06;12.30;;;11.00;;
13345;SDS011;6742;48.036;15.780;2023-02-23T12:13:39;12.52;;;11.23;;
13345;SDS011;6742;48.036;15.780;2023-02-23T12:16:10;13.80;;;11.30;;
13345;SDS011;6742;48.036;15.780;2023-02-23T12:18:45;12.98;;;11.02;;
13345;SDS011;6742;48.036;15.780;2023-02-23T12:21:29;15.02;;;12.20;;
13345;SDS011;6742;48.036;15.780;2023-02-23T12:24:02;13.00;;;11.10;;
13345;SDS011;6742;48.036;15.780;2023-02-23T12:26:40;13.52;;;11.93;;
13345;SDS011;6742;48.036;15.780;2023-02-23T12:29:15;14.82;;;12.30;;
13345;SDS011;6742;48.036;15.780;2023-02-23T12:31:48;12.75;;;11.05;;
13345;SDS011;6742;48.036;15.780;2023-02-23T12:34:21;15.57;;;12.00;;
13345;SDS011;6742;48.036;15.780;2023-02-23T12:36:54;14.00;;;12.52;;
13345;SDS011;6742;48.036;15.780;2023-02-23T12:39:26;13.80;;;12.00;;
13345;SDS011;6742;48.036;15.780;2023-02-23T12:41:59;16.30;;;12.38;;
13345;SDS011;6742;48.036;15.780;2023-02-23T12:44:37;14.00;;;12.50;;
13345;SDS011;6742;48.036;15.780;2023-02-23T12:47:22;16.15;;;12.98;;
13345;SDS011;6742;48.036;15.780;2023-02-23T12:49:57;14.57;;;12.38;;
13345;SDS011;6742;48.036;15.780;2023-02-23T12:52:37;15.13;;;13.10;;
13345;SDS011;6742;48.036;15.780;2023-02-23T12:55:11;14.32;;;11.95;;
13345;SDS011;6742;48.036;15.780;2023-02-23T12:57:43;14.82;;;12.35;;
13345;SDS011;6742;48.036;15.780;2023-02-23T13:00:31;14.95;;;12.70;;
13345;SDS011;6742;48.036;15.780;2023-02-23T13:06:09;14.85;;;12.70;;
13345;SDS011;6742;48.036;15.780;2023-02-23T13:08:50;15.52;;;13.13;;
13345;SDS011;6742;48.036;15.780;2023-02-23T13:11:34;19.75;;;14.35;;
13345;SDS011;6742;48.036;15.780;2023-02-23T13:14:20;16.00;;;13.50;;
13345;SDS011;6742;48.036;15.780;2023-02-23T13:16:54;15.52;;;13.18;;
13345;SDS011;6742;48.036;15.780;2023-02-23T13:19:27;15.82;;;13.95;;
13345;SDS011;6742;48.036;15.780;2023-02-23T13:22:12;14.07;;;12.57;;
13345;SDS011;6742;48.036;15.780;2023-02-23T13:24:51;20.23;;;14.05;;
13345;SDS011;6742;48.036;15.780;2023-02-23T13:27:24;17.08;;;13.32;;
13345;SDS011;6742;48.036;15.780;2023-02-23T13:29:56;15.25;;;12.80;;
13345;SDS011;6742;48.036;15.780;2023-02-23T13:32:24;15.55;;;13.88;;
13345;SDS011;6742;48.036;15.780;2023-02-23T13:34:56;14.82;;;12.52;;
13345;SDS011;6742;48.036;15.780;2023-02-23T13:37:29;16.90;;;13.57;;
13345;SDS011;6742;48.036;15.780;2023-02-23T13:40:02;14.25;;;12.73;;
13345;SDS011;6742;48.036;15.780;2023-02-23T13:42:42;16.15;;;14.30;;
13345;SDS011;6742;48.036;15.780;2023-02-23T13:45:25;14.73;;;13.15;;
13345;SDS011;6742;48.036;15.780;2023-02-23T13:48:04;14.65;;;13.15;;
13345;SDS011;6742;48.036;15.780;2023-02-23T13:50:40;15.10;;;13.27;;
13345;SDS011;6742;48.036;15.780;2023-02-23T13:53:26;14.57;;;12.30;;
13345;SDS011;6742;48.036;15.780;2023-02-23T13:55:58;14.18;;;12.68;;
13345;SDS011;6742;48.036;15.780;2023-02-23T13:58:28;14.30;;;12.35;;
13345;SDS011;6742;48.036;15.780;2023-02-23T14:03:52;16.30;;;13.35;;
13345;SDS011;6742;48.036;15.780;2023-02-23T14:06:21;14.13;;;12.70;;
13345;SDS011;6742;48.036;15.780;2023-02-23T14:08:53;16.27;;;13.23;;
13345;SDS011;6742;48.036;15.780;2023-02-23T14:14:13;24.50;;;21.77;;
13345;SDS011;6742;48.036;15.780;2023-02-23T14:20:05;36.65;;;32.13;;
13345;SDS011;6742;48.036;15.780;2023-02-23T14:25:44;21.48;;;19.02;;
13345;SDS011;6742;48.036;15.780;2023-02-23T14:31:00;15.80;;;14.13;;
13345;SDS011;6742;48.036;15.780;2023-02-23T14:33:47;17.15;;;14.15;;
13345;SDS011;6742;48.036;15.780;2023-02-23T14:36:33;14.15;;;12.13;;
13345;SDS011;6742;48.036;15.780;2023-02-23T14:39:05;13.48;;;11.48;;
13345;SDS011;6742;48.036;15.780;2023-02-23T14:41:37;14.60;;;12.57;;
13345;SDS011;6742;48.036;15.780;2023-02-23T14:44:12;16.00;;;12.77;;
13345;SDS011;6742;48.036;15.780;2023-02-23T14:46:47;16.70;;;12.45;;
13345;SDS011;6742;48.036;15.780;2023-02-23T14:49:19;15.95;;;12.75;;
13345;SDS011;6742;48.036;15.780;2023-02-23T14:51:48;14.80;;;12.88;;
13345;SDS011;6742;48.036;15.780;2023-02-23T14:54:21;14.40;;;12.40;;
13345;SDS011;6742;48.036;15.780;2023-02-23T14:56:52;14.23;;;11.23;;
13345;SDS011;6742;48.036;15.780;2023-02-23T14:59:22;15.02;;;13.38;;
13345;SDS011;6742;48.036;15.780;2023-02-23T15:01:52;15.48;;;13.32;;
13345;SDS011;6742;48.036;15.780;2023-02-23T15:04:21;14.32;;;12.82;;
13345;SDS011;6742;48.036;15.780;2023-02-23T15:06:51;15.30;;;13.50;;
13345;SDS011;6742;48.036;15.780;2023-02-23T15:09:22;16.13;;;12.48;;
13345;SDS011;6742;48.036;15.780;2023-02-23T15:11:57;16.92;;;14.30;;
13345;SDS011;6742;48.036;15.780;2023-02-23T15:14:28;19.70;;;14.23;;
13345;SDS011;6742;48.036;15.780;2023-02-23T15:16:58;17.10;;;13.93;;
13345;SDS011;6742;48.036;15.780;2023-02-23T15:19:25;16.65;;;13.40;;
13345;SDS011;6742;48.036;15.780;2023-02-23T15:21:56;14.13;;;11.88;;
13345;SDS011;6742;48.036;15.780;2023-02-23T15:24:25;17.95;;;12.55;;
13345;SDS011;6742;48.036;15.780;2023-02-23T15:26:57;16.88;;;12.80;;
13345;SDS011;6742;48.036;15.780;2023-02-23T15:29:24;13.07;;;11.65;;
13345;SDS011;6742;48.036;15.780;2023-02-23T15:31:55;14.65;;;12.63;;
13345;SDS011;6742;48.036;15.780;2023-02-23T15:34:38;14.75;;;12.27;;
13345;SDS011;6742;48.036;15.780;2023-02-23T15:37:06;16.85;;;12.95;;
13345;SDS011;6742;48.036;15.780;2023-02-23T15:39:41;16.02;;;13.20;;
13345;SDS011;6742;48.036;15.780;2023-02-23T15:42:14;18.05;;;12.90;;
13345;SDS011;6742;48.036;15.780;2023-02-23T15:44:43;14.43;;;11.70;;
13345;SDS011;6742;48.036;15.780;2023-02-23T15:47:19;12.00;;;10.70;;